createdAt,value
2022-08-05T00:04:56.410Z,55.33
2022-08-05T00:09:58.483Z,55.75
2022-08-05T00:14:59.742Z,55.45
2022-08-05T00:20:20.760Z,55.87
2022-08-05T00:25:22.209Z,55.84
2022-08-05T00:30:29.308Z,55.90
2022-08-05T00:35:33.604Z,55.98
2022-08-05T00:40:53.443Z,56.26
2022-08-05T00:45:54.588Z,56.38
2022-08-05T00:50:56.034Z,56.33
2022-08-05T00:55:57.140Z,56.30
2022-08-05T01:00:58.345Z,56.50
2022-08-05T01:05:59.686Z,56.74
2022-08-05T01:11:22.687Z,56.88
2022-08-05T01:17:02.881Z,57.18
2022-08-05T01:22:29.018Z,56.80
2022-08-05T01:28:05.559Z,57.41
2022-08-05T01:33:12.281Z,57.67
2022-08-05T01:38:24.707Z,58.14
2022-08-05T01:43:29.841Z,57.30
2022-08-05T01:48:34.978Z,58.45
2022-08-05T01:53:58.115Z,58.79
2022-08-05T01:59:01.658Z,58.97
2022-08-05T02:04:06.365Z,58.71
2022-08-05T02:09:07.861Z,58.53
2022-08-05T02:14:12.902Z,58.75
2022-08-05T02:19:23.402Z,58.74
2022-08-05T02:24:31.645Z,59.55
2022-08-05T02:29:59.818Z,60.03
2022-08-05T02:35:09.704Z,59.84
2022-08-05T02:40:19.947Z,59.87
2022-08-05T02:45:24.218Z,59.73
2022-08-05T02:50:27.287Z,60.05
2022-08-05T02:55:52.187Z,60.16
2022-08-05T03:00:54.923Z,60.01
2022-08-05T03:06:55.568Z,59.98
2022-08-05T03:11:57.495Z,60.27
2022-08-05T03:16:42.478Z,60.73
2022-08-05T03:21:48.723Z,61.53
2022-08-05T03:26:50.481Z,65.50
2022-08-05T03:31:56.962Z,64.09
2022-08-05T03:37:03.680Z,62.73
2022-08-05T03:42:04.944Z,58.98
2022-08-05T03:47:06.668Z,57.99
2022-08-05T03:52:37.708Z,58.01
2022-08-05T03:57:41.973Z,58.02
2022-08-05T04:02:58.753Z,59.05
2022-08-05T04:08:14.370Z,59.78
2022-08-05T04:13:50.647Z,60.50
2022-08-05T04:18:54.291Z,61.87
2022-08-05T04:24:06.280Z,61.68
2022-08-05T04:29:10.703Z,57.87
2022-08-05T04:34:31.343Z,58.01
2022-08-05T04:39:35.222Z,58.59
2022-08-05T04:44:36.943Z,59.24
2022-08-05T04:50:02.410Z,60.16
2022-08-05T04:55:00.048Z,60.36
2022-08-05T05:00:15.763Z,60.76
2022-08-05T05:05:26.128Z,60.97
2022-08-05T05:10:33.620Z,61.30
2022-08-05T05:15:56.890Z,63.88
2022-08-05T05:20:56.949Z,62.89
2022-08-05T05:25:59.605Z,60.72
2022-08-05T05:31:01.769Z,51.33
2022-08-05T05:36:07.099Z,44.73
2022-08-05T05:41:08.220Z,38.81
2022-08-05T05:46:17.509Z,38.02
2022-08-05T05:51:23.587Z,32.88
2022-08-05T05:56:32.692Z,31.79
2022-08-05T06:01:39.358Z,31.09
2022-08-05T06:06:47.461Z,29.15
2022-08-05T06:12:01.768Z,28.07
2022-08-05T06:17:22.044Z,27.01
2022-08-05T06:22:28.947Z,26.64
2022-08-05T06:28:10.718Z,25.97
2022-08-05T06:32:52.234Z,25.36
2022-08-05T06:37:57.575Z,25.56
2022-08-05T06:43:00.646Z,24.92
2022-08-05T06:48:36.148Z,24.63
2022-08-05T06:53:28.290Z,24.82
2022-08-05T06:58:36.549Z,24.60
2022-08-05T07:03:37.956Z,24.72
2022-08-05T07:08:39.114Z,24.84
2022-08-05T07:14:01.816Z,25.26
2022-08-05T07:19:03.802Z,25.46
2022-08-05T07:24:11.190Z,25.61
2022-08-05T07:29:12.997Z,25.88
2022-08-05T07:34:14.200Z,25.91
2022-08-05T07:39:50.342Z,25.79
2022-08-05T07:44:43.616Z,26.23
2022-08-05T07:49:54.287Z,26.37
2022-08-05T07:54:56.287Z,26.33
2022-08-05T07:59:57.485Z,26.41
2022-08-05T08:04:58.975Z,26.58
2022-08-05T08:10:00.409Z,27.21
2022-08-05T08:15:04.316Z,27.71
2022-08-05T08:20:22.791Z,27.93
2022-08-05T08:25:59.225Z,29.15
2022-08-05T08:30:50.292Z,29.75
2022-08-05T08:35:52.840Z,30.12
2022-08-05T08:41:07.583Z,30.99
2022-08-05T08:46:10.327Z,32.13
2022-08-05T08:52:02.387Z,32.69
2022-08-05T08:56:47.399Z,33.09
2022-08-05T09:01:56.971Z,33.24
2022-08-05T09:06:58.917Z,33.19
2022-08-05T09:12:06.052Z,33.49
2022-08-05T09:17:43.073Z,33.66
2022-08-05T09:23:05.540Z,33.28
2022-08-05T09:28:21.062Z,33.44
2022-08-05T09:33:23.413Z,33.10
2022-08-05T09:38:36.486Z,32.85
2022-08-05T09:43:40.473Z,32.66
2022-08-05T09:48:43.686Z,32.29
2022-08-05T09:54:07.682Z,32.28
2022-08-05T09:59:17.208Z,32.75
2022-08-05T10:04:18.634Z,32.80
2022-08-05T10:09:30.255Z,33.22
2022-08-05T10:14:46.427Z,33.32
2022-08-05T10:20:02.837Z,33.94
2022-08-05T10:25:07.525Z,33.82
2022-08-05T10:31:19.988Z,34.00
2022-08-05T10:35:40.337Z,34.04
2022-08-05T10:41:27.258Z,33.97
2022-08-05T10:46:54.625Z,33.79
2022-08-05T10:51:59.968Z,34.02
2022-08-05T10:57:02.080Z,34.14
2022-08-05T11:02:14.601Z,33.99
2022-08-05T11:07:32.911Z,33.90
2022-08-05T11:12:55.226Z,33.77
2022-08-05T11:18:06.189Z,34.06
2022-08-05T11:24:03.812Z,34.01
2022-08-05T11:29:13.964Z,33.63
2022-08-05T11:34:36.508Z,33.43
2022-08-05T11:40:02.721Z,33.15
2022-08-05T11:45:05.704Z,32.93
2022-08-05T11:50:15.882Z,32.79
2022-08-05T11:55:17.008Z,32.93
2022-08-05T12:00:30.401Z,32.99
2022-08-05T12:05:36.376Z,33.07
2022-08-05T12:10:45.836Z,32.95
2022-08-05T12:15:49.916Z,32.85
2022-08-05T12:20:51.618Z,32.52
2022-08-05T12:25:56.938Z,32.70
2022-08-05T12:30:58.394Z,32.64
2022-08-05T12:36:08.001Z,33.00
2022-08-05T12:41:14.449Z,33.20
2022-08-05T12:46:29.021Z,33.12
2022-08-05T12:52:12.716Z,33.34
2022-08-05T12:57:09.525Z,33.30
2022-08-05T13:02:15.000Z,33.44
2022-08-05T13:07:54.714Z,33.65
2022-08-05T13:12:57.277Z,33.64
2022-08-05T13:17:59.905Z,33.63
2022-08-05T13:23:02.626Z,33.73
2022-08-05T13:28:10.629Z,33.92
2022-08-05T13:33:14.221Z,33.80
2022-08-05T13:38:36.101Z,33.63
2022-08-05T13:43:44.331Z,33.90
2022-08-05T13:48:58.296Z,34.15
2022-08-05T13:54:01.485Z,34.40
2022-08-05T13:59:06.310Z,34.27
2022-08-05T14:04:40.786Z,34.50
2022-08-05T14:09:46.187Z,34.95
2022-08-05T14:14:48.168Z,35.42
2022-08-05T14:19:55.311Z,36.12
2022-08-05T14:24:58.021Z,36.52
2022-08-05T14:29:59.092Z,36.60
2022-08-05T14:35:00.534Z,36.32
2022-08-05T14:40:02.313Z,36.19
2022-08-05T14:45:04.983Z,35.97
2022-08-05T14:50:17.442Z,35.86
2022-08-05T14:55:21.236Z,36.17
2022-08-05T15:00:29.383Z,36.43
2022-08-05T15:06:12.947Z,36.73
2022-08-05T15:10:53.673Z,36.52
2022-08-05T15:15:56.509Z,36.78
2022-08-05T15:20:57.756Z,36.81
2022-08-05T15:26:09.154Z,36.76
2022-08-05T15:31:10.982Z,36.75
2022-08-05T15:36:17.678Z,36.59
2022-08-05T15:41:55.667Z,36.29
2022-08-05T15:46:46.941Z,35.95
2022-08-05T15:52:12.619Z,36.34
2022-08-05T15:57:13.243Z,36.60
2022-08-05T16:02:19.658Z,36.64
2022-08-05T16:07:29.591Z,36.83
2022-08-05T16:12:31.051Z,37.16
2022-08-05T16:17:32.320Z,37.44
2022-08-05T16:22:34.728Z,37.61
2022-08-05T16:28:00.195Z,37.35
2022-08-05T16:33:00.226Z,37.64
2022-08-05T16:38:16.013Z,38.11
2022-08-05T16:43:24.448Z,38.21
2022-08-05T16:48:33.244Z,38.57
2022-08-05T16:54:06.018Z,38.94
2022-08-05T16:59:08.107Z,39.24
2022-08-05T17:04:09.817Z,39.43
2022-08-05T17:09:11.433Z,39.56
2022-08-05T17:14:34.495Z,39.67
2022-08-05T17:19:36.441Z,39.90
2022-08-05T17:24:42.325Z,40.23
2022-08-05T17:29:51.473Z,40.71
2022-08-05T17:35:01.556Z,41.13
2022-08-05T17:40:10.090Z,41.38
2022-08-05T17:45:20.140Z,41.76
2022-08-05T17:50:28.130Z,42.03
2022-08-05T17:55:38.184Z,42.54
2022-08-05T18:00:45.353Z,43.01
2022-08-05T18:05:52.900Z,43.51
2022-08-05T18:10:54.760Z,43.99
2022-08-05T18:15:56.350Z,44.39
2022-08-05T18:20:59.666Z,44.49
2022-08-05T18:26:03.266Z,45.09
2022-08-05T18:31:06.764Z,45.69
2022-08-05T18:36:15.358Z,45.84
2022-08-05T18:41:55.934Z,46.34
2022-08-05T18:46:38.405Z,46.43
2022-08-05T18:52:04.237Z,47.14
2022-08-05T18:57:10.701Z,47.68
2022-08-05T19:02:26.834Z,48.02
2022-08-05T19:07:29.959Z,48.42
2022-08-05T19:12:47.629Z,48.72
2022-08-05T19:17:59.330Z,49.08
2022-08-05T19:24:05.996Z,48.64
2022-08-05T19:28:41.515Z,48.85
2022-08-05T19:33:48.550Z,49.63
2022-08-05T19:39:00.545Z,49.62
2022-08-05T19:44:13.083Z,49.77
2022-08-05T19:49:17.649Z,50.10
2022-08-05T19:54:29.754Z,51.39
2022-08-05T19:59:53.914Z,51.56
2022-08-05T20:04:55.023Z,51.17
2022-08-05T20:09:56.779Z,52.15
2022-08-05T20:14:59.942Z,52.26
2022-08-05T20:20:01.070Z,52.75
2022-08-05T20:25:02.452Z,53.06
2022-08-05T20:30:04.754Z,53.81
2022-08-05T20:35:07.285Z,53.84
2022-08-05T20:40:10.223Z,54.83
2022-08-05T20:45:11.386Z,54.87
2022-08-05T20:50:12.791Z,55.21
2022-08-05T20:55:56.757Z,55.18
2022-08-05T21:00:44.210Z,55.67
2022-08-05T21:05:55.476Z,55.47
2022-08-05T21:10:58.406Z,56.05
2022-08-05T21:16:00.207Z,57.23
2022-08-05T21:21:02.926Z,56.64
2022-08-05T21:26:08.107Z,56.70
2022-08-05T21:31:13.336Z,56.99
2022-08-05T21:36:14.597Z,57.11
2022-08-05T21:41:32.973Z,57.45
2022-08-05T21:46:35.336Z,57.05
2022-08-05T21:52:15.752Z,57.78
2022-08-05T21:57:28.335Z,57.69
2022-08-05T22:02:19.430Z,58.16
2022-08-05T22:07:21.025Z,58.22
2022-08-05T22:12:45.033Z,58.48
2022-08-05T22:17:59.851Z,59.44
2022-08-05T22:23:21.370Z,61.27
2022-08-05T22:28:25.446Z,64.84
2022-08-05T22:33:58.571Z,59.75
2022-08-05T22:38:48.963Z,59.13
2022-08-05T22:43:50.184Z,60.26
2022-08-05T22:48:52.497Z,62.41
2022-08-05T22:53:55.027Z,63.92
2022-08-05T22:58:56.864Z,59.76
2022-08-05T23:03:59.651Z,59.12
2022-08-05T23:09:26.988Z,60.64
2022-08-05T23:14:22.719Z,63.92
2022-08-05T23:19:38.613Z,63.86
2022-08-05T23:24:51.166Z,64.42
2022-08-05T23:29:53.403Z,63.22
2022-08-05T23:34:56.259Z,62.67
2022-08-05T23:39:57.361Z,61.36
2022-08-05T23:44:58.864Z,58.38
2022-08-05T23:50:00.976Z,59.71
2022-08-05T23:55:08.959Z,64.95
